sensor_id;sensor_type;location;lat;lon;timestamp;P1;durP1;ratioP1;P2;durP2;ratioP2
52268;SDS011;38224;50.950;4.100;2023-12-20T00:01:19;0.50;;;0.50;;
52268;SDS011;38224;50.950;4.100;2023-12-20T00:03:44;1.13;;;0.90;;
52268;SDS011;38224;50.950;4.100;2023-12-20T00:06:10;1.38;;;1.17;;
52268;SDS011;38224;50.950;4.100;2023-12-20T00:08:35;0.63;;;0.63;;
52268;SDS011;38224;50.950;4.100;2023-12-20T00:11:00;1.55;;;1.45;;
52268;SDS011;38224;50.950;4.100;2023-12-20T00:13:25;0.60;;;0.60;;
52268;SDS011;38224;50.950;4.100;2023-12-20T00:15:51;0.43;;;0.43;;
52268;SDS011;38224;50.950;4.100;2023-12-20T00:18:16;0.60;;;0.60;;
52268;SDS011;38224;50.950;4.100;2023-12-20T00:20:41;0.50;;;0.50;;
52268;SDS011;38224;50.950;4.100;2023-12-20T00:23:06;0.50;;;0.50;;
52268;SDS011;38224;50.950;4.100;2023-12-20T00:25:33;0.47;;;0.47;;
52268;SDS011;38224;50.950;4.100;2023-12-20T00:27:58;0.60;;;0.60;;
52268;SDS011;38224;50.950;4.100;2023-12-20T00:30:23;0.50;;;0.50;;
52268;SDS011;38224;50.950;4.100;2023-12-20T00:32:48;0.50;;;0.50;;
52268;SDS011;38224;50.950;4.100;2023-12-20T00:35:14;0.40;;;0.40;;
52268;SDS011;38224;50.950;4.100;2023-12-20T00:37:44;0.50;;;0.50;;
52268;SDS011;38224;50.950;4.100;2023-12-20T00:40:10;2.63;;;2.10;;
52268;SDS011;38224;50.950;4.100;2023-12-20T00:42:36;0.60;;;0.60;;
52268;SDS011;38224;50.950;4.100;2023-12-20T00:45:01;0.88;;;0.88;;
52268;SDS011;38224;50.950;4.100;2023-12-20T00:47:28;0.50;;;0.50;;
52268;SDS011;38224;50.950;4.100;2023-12-20T00:49:53;0.50;;;0.50;;
52268;SDS011;38224;50.950;4.100;2023-12-20T00:52:19;0.50;;;0.50;;
52268;SDS011;38224;50.950;4.100;2023-12-20T00:54:44;1.38;;;1.27;;
52268;SDS011;38224;50.950;4.100;2023-12-20T00:57:09;0.50;;;0.50;;
52268;SDS011;38224;50.950;4.100;2023-12-20T00:59:35;0.60;;;0.60;;
52268;SDS011;38224;50.950;4.100;2023-12-20T01:02:00;53.13;;;2.00;;
52268;SDS011;38224;50.950;4.100;2023-12-20T01:04:25;4.78;;;1.38;;
52268;SDS011;38224;50.950;4.100;2023-12-20T01:06:51;0.57;;;0.57;;
52268;SDS011;38224;50.950;4.100;2023-12-20T01:09:17;0.50;;;0.50;;
52268;SDS011;38224;50.950;4.100;2023-12-20T01:11:43;1.25;;;1.25;;
52268;SDS011;38224;50.950;4.100;2023-12-20T01:14:08;0.40;;;0.40;;
52268;SDS011;38224;50.950;4.100;2023-12-20T01:16:34;0.50;;;0.50;;
52268;SDS011;38224;50.950;4.100;2023-12-20T01:18:59;0.50;;;0.50;;
52268;SDS011;38224;50.950;4.100;2023-12-20T01:21:24;0.40;;;0.40;;
52268;SDS011;38224;50.950;4.100;2023-12-20T01:23:52;2.85;;;1.50;;
52268;SDS011;38224;50.950;4.100;2023-12-20T01:26:17;0.40;;;0.40;;
52268;SDS011;38224;50.950;4.100;2023-12-20T01:28:42;1.03;;;1.03;;
52268;SDS011;38224;50.950;4.100;2023-12-20T01:31:08;1.05;;;1.00;;
52268;SDS011;38224;50.950;4.100;2023-12-20T01:33:33;0.40;;;0.40;;
52268;SDS011;38224;50.950;4.100;2023-12-20T01:35:59;2.05;;;1.58;;
52268;SDS011;38224;50.950;4.100;2023-12-20T01:38:24;0.88;;;0.88;;
52268;SDS011;38224;50.950;4.100;2023-12-20T01:40:49;3.20;;;2.60;;
52268;SDS011;38224;50.950;4.100;2023-12-20T01:43:15;18.83;;;3.15;;
52268;SDS011;38224;50.950;4.100;2023-12-20T01:45:42;0.40;;;0.40;;
52268;SDS011;38224;50.950;4.100;2023-12-20T01:48:08;0.50;;;0.50;;
52268;SDS011;38224;50.950;4.100;2023-12-20T01:50:34;2.92;;;1.33;;
52268;SDS011;38224;50.950;4.100;2023-12-20T01:53:00;0.85;;;0.85;;
52268;SDS011;38224;50.950;4.100;2023-12-20T01:55:27;0.40;;;0.40;;
52268;SDS011;38224;50.950;4.100;2023-12-20T01:57:53;0.50;;;0.50;;
52268;SDS011;38224;50.950;4.100;2023-12-20T02:00:19;0.55;;;0.55;;
52268;SDS011;38224;50.950;4.100;2023-12-20T02:02:48;2.65;;;1.67;;
52268;SDS011;38224;50.950;4.100;2023-12-20T02:05:14;0.40;;;0.40;;
52268;SDS011;38224;50.950;4.100;2023-12-20T02:07:40;2.65;;;1.13;;
52268;SDS011;38224;50.950;4.100;2023-12-20T02:10:05;0.40;;;0.40;;
52268;SDS011;38224;50.950;4.100;2023-12-20T02:12:31;0.60;;;0.60;;
52268;SDS011;38224;50.950;4.100;2023-12-20T02:14:56;1.20;;;1.17;;
52268;SDS011;38224;50.950;4.100;2023-12-20T02:17:21;0.40;;;0.40;;
52268;SDS011;38224;50.950;4.100;2023-12-20T02:19:47;0.52;;;0.52;;
52268;SDS011;38224;50.950;4.100;2023-12-20T02:22:12;0.90;;;0.90;;
52268;SDS011;38224;50.950;4.100;2023-12-20T02:24:37;0.68;;;0.68;;
52268;SDS011;38224;50.950;4.100;2023-12-20T02:27:03;1.10;;;1.10;;
52268;SDS011;38224;50.950;4.100;2023-12-20T02:29:30;0.40;;;0.40;;
52268;SDS011;38224;50.950;4.100;2023-12-20T02:31:55;0.40;;;0.40;;
52268;SDS011;38224;50.950;4.100;2023-12-20T02:34:21;0.50;;;0.50;;
52268;SDS011;38224;50.950;4.100;2023-12-20T02:36:46;3.38;;;3.08;;
52268;SDS011;38224;50.950;4.100;2023-12-20T02:39:11;0.93;;;0.93;;
52268;SDS011;38224;50.950;4.100;2023-12-20T02:41:36;0.73;;;0.73;;
52268;SDS011;38224;50.950;4.100;2023-12-20T02:44:02;2.67;;;1.48;;
52268;SDS011;38224;50.950;4.100;2023-12-20T02:46:27;0.60;;;0.60;;
52268;SDS011;38224;50.950;4.100;2023-12-20T02:48:53;0.70;;;0.70;;
52268;SDS011;38224;50.950;4.100;2023-12-20T02:51:18;0.67;;;0.67;;
52268;SDS011;38224;50.950;4.100;2023-12-20T02:53:43;1.13;;;1.07;;
52268;SDS011;38224;50.950;4.100;2023-12-20T02:56:08;0.50;;;0.50;;
52268;SDS011;38224;50.950;4.100;2023-12-20T02:58:34;0.40;;;0.40;;
52268;SDS011;38224;50.950;4.100;2023-12-20T03:00:59;0.40;;;0.40;;
52268;SDS011;38224;50.950;4.100;2023-12-20T03:03:24;0.90;;;0.90;;
52268;SDS011;38224;50.950;4.100;2023-12-20T03:05:50;0.43;;;0.43;;
52268;SDS011;38224;50.950;4.100;2023-12-20T03:08:15;0.40;;;0.40;;
52268;SDS011;38224;50.950;4.100;2023-12-20T03:10:40;0.60;;;0.60;;
52268;SDS011;38224;50.950;4.100;2023-12-20T03:13:06;0.50;;;0.50;;
52268;SDS011;38224;50.950;4.100;2023-12-20T03:15:33;0.40;;;0.40;;
52268;SDS011;38224;50.950;4.100;2023-12-20T03:17:59;0.40;;;0.40;;
52268;SDS011;38224;50.950;4.100;2023-12-20T03:20:24;0.40;;;0.40;;
52268;SDS011;38224;50.950;4.100;2023-12-20T03:22:51;0.45;;;0.45;;
52268;SDS011;38224;50.950;4.100;2023-12-20T03:25:16;0.82;;;0.82;;
52268;SDS011;38224;50.950;4.100;2023-12-20T03:27:41;0.50;;;0.50;;
52268;SDS011;38224;50.950;4.100;2023-12-20T03:30:07;1.02;;;0.98;;
52268;SDS011;38224;50.950;4.100;2023-12-20T03:32:32;0.50;;;0.50;;
52268;SDS011;38224;50.950;4.100;2023-12-20T03:34:57;0.43;;;0.43;;
52268;SDS011;38224;50.950;4.100;2023-12-20T03:37:25;1.30;;;1.30;;
52268;SDS011;38224;50.950;4.100;2023-12-20T03:39:50;1.23;;;1.15;;
52268;SDS011;38224;50.950;4.100;2023-12-20T03:42:18;0.70;;;0.70;;
52268;SDS011;38224;50.950;4.100;2023-12-20T03:44:43;1.47;;;1.37;;
52268;SDS011;38224;50.950;4.100;2023-12-20T03:47:11;0.77;;;0.68;;
52268;SDS011;38224;50.950;4.100;2023-12-20T03:49:36;6.17;;;1.40;;
52268;SDS011;38224;50.950;4.100;2023-12-20T03:52:02;0.40;;;0.40;;
52268;SDS011;38224;50.950;4.100;2023-12-20T03:54:28;1.10;;;1.10;;
52268;SDS011;38224;50.950;4.100;2023-12-20T03:56:53;0.60;;;0.60;;
52268;SDS011;38224;50.950;4.100;2023-12-20T03:59:18;0.40;;;0.40;;
52268;SDS011;38224;50.950;4.100;2023-12-20T04:01:44;0.60;;;0.60;;
52268;SDS011;38224;50.950;4.100;2023-12-20T04:04:12;0.50;;;0.50;;
52268;SDS011;38224;50.950;4.100;2023-12-20T04:06:38;0.60;;;0.60;;
52268;SDS011;38224;50.950;4.100;2023-12-20T04:09:03;15.73;;;1.38;;
52268;SDS011;38224;50.950;4.100;2023-12-20T04:11:28;0.47;;;0.47;;
52268;SDS011;38224;50.950;4.100;2023-12-20T04:13:53;0.55;;;0.55;;
52268;SDS011;38224;50.950;4.100;2023-12-20T04:16:19;0.80;;;0.80;;
52268;SDS011;38224;50.950;4.100;2023-12-20T04:18:44;0.40;;;0.40;;
52268;SDS011;38224;50.950;4.100;2023-12-20T04:21:09;0.50;;;0.50;;
52268;SDS011;38224;50.950;4.100;2023-12-20T04:23:35;0.50;;;0.50;;
52268;SDS011;38224;50.950;4.100;2023-12-20T04:26:00;0.40;;;0.40;;
52268;SDS011;38224;50.950;4.100;2023-12-20T04:28:25;0.83;;;0.73;;
52268;SDS011;38224;50.950;4.100;2023-12-20T04:30:50;0.52;;;0.52;;
52268;SDS011;38224;50.950;4.100;2023-12-20T04:33:16;0.40;;;0.40;;
52268;SDS011;38224;50.950;4.100;2023-12-20T04:35:41;5.70;;;2.25;;
52268;SDS011;38224;50.950;4.100;2023-12-20T04:38:10;2.67;;;2.47;;
52268;SDS011;38224;50.950;4.100;2023-12-20T04:40:36;0.50;;;0.50;;
52268;SDS011;38224;50.950;4.100;2023-12-20T04:43:04;1.20;;;1.10;;
52268;SDS011;38224;50.950;4.100;2023-12-20T04:45:29;8.45;;;1.23;;
52268;SDS011;38224;50.950;4.100;2023-12-20T04:47:55;1.03;;;0.73;;
52268;SDS011;38224;50.950;4.100;2023-12-20T04:50:20;0.40;;;0.40;;
52268;SDS011;38224;50.950;4.100;2023-12-20T04:52:46;0.40;;;0.40;;
52268;SDS011;38224;50.950;4.100;2023-12-20T04:55:12;0.50;;;0.50;;
52268;SDS011;38224;50.950;4.100;2023-12-20T04:57:37;1.35;;;1.25;;
52268;SDS011;38224;50.950;4.100;2023-12-20T05:00:05;0.60;;;0.60;;
52268;SDS011;38224;50.950;4.100;2023-12-20T05:02:30;0.52;;;0.52;;
52268;SDS011;38224;50.950;4.100;2023-12-20T05:04:56;0.40;;;0.40;;
52268;SDS011;38224;50.950;4.100;2023-12-20T05:07:21;2.15;;;1.33;;
52268;SDS011;38224;50.950;4.100;2023-12-20T05:09:46;0.40;;;0.40;;
52268;SDS011;38224;50.950;4.100;2023-12-20T05:12:14;0.50;;;0.50;;
52268;SDS011;38224;50.950;4.100;2023-12-20T05:14:40;0.70;;;0.70;;
52268;SDS011;38224;50.950;4.100;2023-12-20T05:17:05;0.50;;;0.50;;
52268;SDS011;38224;50.950;4.100;2023-12-20T05:19:31;1.38;;;1.27;;
52268;SDS011;38224;50.950;4.100;2023-12-20T05:21:56;0.70;;;0.70;;
52268;SDS011;38224;50.950;4.100;2023-12-20T05:24:23;7.93;;;2.17;;
52268;SDS011;38224;50.950;4.100;2023-12-20T05:26:49;0.95;;;0.90;;
52268;SDS011;38224;50.950;4.100;2023-12-20T05:29:14;0.50;;;0.50;;
52268;SDS011;38224;50.950;4.100;2023-12-20T05:31:39;0.70;;;0.70;;
52268;SDS011;38224;50.950;4.100;2023-12-20T05:34:04;0.60;;;0.60;;
52268;SDS011;38224;50.950;4.100;2023-12-20T05:36:30;0.60;;;0.60;;
52268;SDS011;38224;50.950;4.100;2023-12-20T05:38:55;0.73;;;0.70;;
52268;SDS011;38224;50.950;4.100;2023-12-20T05:41:20;2.20;;;2.00;;
52268;SDS011;38224;50.950;4.100;2023-12-20T05:43:46;0.45;;;0.45;;
52268;SDS011;38224;50.950;4.100;2023-12-20T05:46:12;0.80;;;0.80;;
52268;SDS011;38224;50.950;4.100;2023-12-20T05:48:37;0.50;;;0.50;;
52268;SDS011;38224;50.950;4.100;2023-12-20T05:51:02;2.50;;;2.30;;
52268;SDS011;38224;50.950;4.100;2023-12-20T05:53:27;0.57;;;0.57;;
52268;SDS011;38224;50.950;4.100;2023-12-20T05:55:53;0.50;;;0.50;;
52268;SDS011;38224;50.950;4.100;2023-12-20T05:58:18;6.55;;;1.52;;
52268;SDS011;38224;50.950;4.100;2023-12-20T06:00:43;1.97;;;1.23;;
52268;SDS011;38224;50.950;4.100;2023-12-20T06:03:09;0.50;;;0.50;;
52268;SDS011;38224;50.950;4.100;2023-12-20T06:05:34;0.40;;;0.40;;
52268;SDS011;38224;50.950;4.100;2023-12-20T06:07:59;1.20;;;1.10;;
52268;SDS011;38224;50.950;4.100;2023-12-20T06:10:27;9.18;;;2.42;;
52268;SDS011;38224;50.950;4.100;2023-12-20T06:12:53;0.60;;;0.60;;
52268;SDS011;38224;50.950;4.100;2023-12-20T06:15:18;1.77;;;1.27;;
52268;SDS011;38224;50.950;4.100;2023-12-20T06:17:45;0.50;;;0.50;;
52268;SDS011;38224;50.950;4.100;2023-12-20T06:20:12;0.50;;;0.50;;
52268;SDS011;38224;50.950;4.100;2023-12-20T06:22:38;1.65;;;1.55;;
52268;SDS011;38224;50.950;4.100;2023-12-20T06:25:04;1.73;;;1.20;;
52268;SDS011;38224;50.950;4.100;2023-12-20T06:27:29;0.73;;;0.73;;
52268;SDS011;38224;50.950;4.100;2023-12-20T06:29:54;0.50;;;0.50;;
52268;SDS011;38224;50.950;4.100;2023-12-20T06:32:20;3.20;;;1.20;;
52268;SDS011;38224;50.950;4.100;2023-12-20T06:34:45;0.63;;;0.63;;
52268;SDS011;38224;50.950;4.100;2023-12-20T06:37:10;0.67;;;0.67;;
52268;SDS011;38224;50.950;4.100;2023-12-20T06:39:35;0.50;;;0.50;;
52268;SDS011;38224;50.950;4.100;2023-12-20T06:42:01;1.33;;;1.23;;
52268;SDS011;38224;50.950;4.100;2023-12-20T06:44:26;1.20;;;1.10;;
52268;SDS011;38224;50.950;4.100;2023-12-20T06:46:51;0.52;;;0.52;;
52268;SDS011;38224;50.950;4.100;2023-12-20T06:49:16;0.60;;;0.60;;
52268;SDS011;38224;50.950;4.100;2023-12-20T06:51:42;0.50;;;0.50;;
52268;SDS011;38224;50.950;4.100;2023-12-20T06:54:07;0.40;;;0.40;;
52268;SDS011;38224;50.950;4.100;2023-12-20T06:56:33;0.70;;;0.70;;
52268;SDS011;38224;50.950;4.100;2023-12-20T06:58:58;0.47;;;0.47;;
52268;SDS011;38224;50.950;4.100;2023-12-20T07:01:23;1.27;;;1.20;;
52268;SDS011;38224;50.950;4.100;2023-12-20T07:03:49;0.70;;;0.70;;
52268;SDS011;38224;50.950;4.100;2023-12-20T07:06:16;0.40;;;0.40;;
52268;SDS011;38224;50.950;4.100;2023-12-20T07:08:42;0.55;;;0.55;;
52268;SDS011;38224;50.950;4.100;2023-12-20T07:11:07;0.50;;;0.50;;
52268;SDS011;38224;50.950;4.100;2023-12-20T07:13:32;2.30;;;2.20;;
52268;SDS011;38224;50.950;4.100;2023-12-20T07:15:58;0.40;;;0.40;;
52268;SDS011;38224;50.950;4.100;2023-12-20T07:18:23;0.50;;;0.50;;
52268;SDS011;38224;50.950;4.100;2023-12-20T07:20:48;4.22;;;2.75;;
52268;SDS011;38224;50.950;4.100;2023-12-20T07:23:14;0.55;;;0.55;;
52268;SDS011;38224;50.950;4.100;2023-12-20T07:25:39;1.43;;;1.33;;
52268;SDS011;38224;50.950;4.100;2023-12-20T07:28:04;0.60;;;0.60;;
52268;SDS011;38224;50.950;4.100;2023-12-20T07:30:30;0.98;;;0.98;;
52268;SDS011;38224;50.950;4.100;2023-12-20T07:32:56;2.80;;;1.98;;
52268;SDS011;38224;50.950;4.100;2023-12-20T07:35:22;1.33;;;1.23;;
52268;SDS011;38224;50.950;4.100;2023-12-20T07:37:48;0.40;;;0.40;;
52268;SDS011;38224;50.950;4.100;2023-12-20T07:40:13;0.60;;;0.60;;
52268;SDS011;38224;50.950;4.100;2023-12-20T07:42:38;0.80;;;0.80;;
52268;SDS011;38224;50.950;4.100;2023-12-20T07:45:06;0.50;;;0.50;;
52268;SDS011;38224;50.950;4.100;2023-12-20T07:47:34;17.13;;;1.63;;
52268;SDS011;38224;50.950;4.100;2023-12-20T07:49:59;22.50;;;3.37;;
52268;SDS011;38224;50.950;4.100;2023-12-20T07:52:24;25.50;;;4.50;;
52268;SDS011;38224;50.950;4.100;2023-12-20T07:54:51;28.73;;;4.82;;
52268;SDS011;38224;50.950;4.100;2023-12-20T07:57:16;27.73;;;3.75;;
52268;SDS011;38224;50.950;4.100;2023-12-20T07:59:41;20.13;;;4.03;;
52268;SDS011;38224;50.950;4.100;2023-12-20T08:02:06;22.75;;;4.10;;
52268;SDS011;38224;50.950;4.100;2023-12-20T08:04:32;30.30;;;3.87;;
52268;SDS011;38224;50.950;4.100;2023-12-20T08:07:00;34.72;;;4.95;;
52268;SDS011;38224;50.950;4.100;2023-12-20T08:09:25;17.58;;;3.72;;
52268;SDS011;38224;50.950;4.100;2023-12-20T08:11:50;20.17;;;3.75;;
52268;SDS011;38224;50.950;4.100;2023-12-20T08:14:16;26.90;;;4.00;;
52268;SDS011;38224;50.950;4.100;2023-12-20T08:16:41;22.33;;;3.85;;
52268;SDS011;38224;50.950;4.100;2023-12-20T08:19:06;23.77;;;4.13;;
52268;SDS011;38224;50.950;4.100;2023-12-20T08:21:31;20.20;;;4.28;;
52268;SDS011;38224;50.950;4.100;2023-12-20T08:23:57;24.75;;;4.43;;
52268;SDS011;38224;50.950;4.100;2023-12-20T08:26:22;32.33;;;4.27;;
52268;SDS011;38224;50.950;4.100;2023-12-20T08:28:49;21.33;;;3.78;;
52268;SDS011;38224;50.950;4.100;2023-12-20T08:31:14;31.02;;;4.35;;
52268;SDS011;38224;50.950;4.100;2023-12-20T08:33:40;16.10;;;3.70;;
52268;SDS011;38224;50.950;4.100;2023-12-20T08:36:06;34.17;;;5.00;;
52268;SDS011;38224;50.950;4.100;2023-12-20T08:38:31;21.92;;;5.45;;
52268;SDS011;38224;50.950;4.100;2023-12-20T08:40:56;25.60;;;3.60;;
52268;SDS011;38224;50.950;4.100;2023-12-20T08:43:24;22.70;;;4.13;;
52268;SDS011;38224;50.950;4.100;2023-12-20T08:45:49;23.92;;;3.80;;
52268;SDS011;38224;50.950;4.100;2023-12-20T08:48:14;25.67;;;4.80;;
52268;SDS011;38224;50.950;4.100;2023-12-20T08:50:42;23.27;;;3.85;;
52268;SDS011;38224;50.950;4.100;2023-12-20T08:53:08;23.50;;;4.32;;
52268;SDS011;38224;50.950;4.100;2023-12-20T08:55:33;21.30;;;4.28;;
52268;SDS011;38224;50.950;4.100;2023-12-20T08:57:59;24.02;;;3.45;;
52268;SDS011;38224;50.950;4.100;2023-12-20T09:00:24;26.40;;;5.03;;
52268;SDS011;38224;50.950;4.100;2023-12-20T09:02:52;31.20;;;5.10;;
52268;SDS011;38224;50.950;4.100;2023-12-20T09:05:18;28.23;;;3.92;;
52268;SDS011;38224;50.950;4.100;2023-12-20T09:07:43;27.58;;;4.32;;
52268;SDS011;38224;50.950;4.100;2023-12-20T09:10:08;23.35;;;3.60;;
52268;SDS011;38224;50.950;4.100;2023-12-20T09:12:34;19.35;;;3.53;;
52268;SDS011;38224;50.950;4.100;2023-12-20T09:14:59;26.40;;;3.97;;
52268;SDS011;38224;50.950;4.100;2023-12-20T09:17:27;27.42;;;5.80;;
52268;SDS011;38224;50.950;4.100;2023-12-20T09:19:52;20.23;;;3.58;;
52268;SDS011;38224;50.950;4.100;2023-12-20T09:22:19;17.27;;;3.13;;
52268;SDS011;38224;50.950;4.100;2023-12-20T09:24:44;14.43;;;4.05;;
52268;SDS011;38224;50.950;4.100;2023-12-20T09:27:09;30.25;;;4.55;;
52268;SDS011;38224;50.950;4.100;2023-12-20T09:29:35;20.63;;;4.55;;
52268;SDS011;38224;50.950;4.100;2023-12-20T09:32:00;23.03;;;3.23;;
52268;SDS011;38224;50.950;4.100;2023-12-20T09:34:25;19.37;;;3.67;;
52268;SDS011;38224;50.950;4.100;2023-12-20T09:36:52;26.02;;;3.88;;
52268;SDS011;38224;50.950;4.100;2023-12-20T09:39:17;14.68;;;3.72;;
52268;SDS011;38224;50.950;4.100;2023-12-20T09:41:51;16.70;;;4.15;;
52268;SDS011;38224;50.950;4.100;2023-12-20T09:44:19;19.70;;;3.92;;
52268;SDS011;38224;50.950;4.100;2023-12-20T09:46:45;20.70;;;3.88;;
52268;SDS011;38224;50.950;4.100;2023-12-20T09:49:14;27.33;;;4.25;;
52268;SDS011;38224;50.950;4.100;2023-12-20T09:51:40;21.00;;;3.72;;
52268;SDS011;38224;50.950;4.100;2023-12-20T09:54:06;19.85;;;3.90;;
52268;SDS011;38224;50.950;4.100;2023-12-20T09:56:31;19.10;;;4.20;;
52268;SDS011;38224;50.950;4.100;2023-12-20T09:58:56;23.03;;;4.33;;
52268;SDS011;38224;50.950;4.100;2023-12-20T10:01:22;22.27;;;5.05;;
52268;SDS011;38224;50.950;4.100;2023-12-20T10:03:47;24.92;;;4.05;;
52268;SDS011;38224;50.950;4.100;2023-12-20T10:06:13;20.13;;;3.93;;
52268;SDS011;38224;50.950;4.100;2023-12-20T10:08:38;20.45;;;3.90;;
52268;SDS011;38224;50.950;4.100;2023-12-20T10:11:04;21.45;;;4.25;;
52268;SDS011;38224;50.950;4.100;2023-12-20T10:13:29;17.88;;;3.05;;
52268;SDS011;38224;50.950;4.100;2023-12-20T10:15:55;20.55;;;4.38;;
52268;SDS011;38224;50.950;4.100;2023-12-20T10:18:20;21.10;;;3.83;;
52268;SDS011;38224;50.950;4.100;2023-12-20T10:20:46;18.80;;;3.72;;
52268;SDS011;38224;50.950;4.100;2023-12-20T10:23:11;16.42;;;3.90;;
52268;SDS011;38224;50.950;4.100;2023-12-20T10:25:39;14.25;;;3.35;;
52268;SDS011;38224;50.950;4.100;2023-12-20T10:30:36;22.05;;;4.32;;
52268;SDS011;38224;50.950;4.100;2023-12-20T10:33:01;21.58;;;3.47;;
52268;SDS011;38224;50.950;4.100;2023-12-20T10:35:26;19.27;;;4.50;;
52268;SDS011;38224;50.950;4.100;2023-12-20T10:37:53;14.73;;;3.60;;
52268;SDS011;38224;50.950;4.100;2023-12-20T10:40:19;19.63;;;3.78;;
52268;SDS011;38224;50.950;4.100;2023-12-20T10:42:44;20.77;;;3.92;;
52268;SDS011;38224;50.950;4.100;2023-12-20T10:45:10;19.45;;;3.97;;
52268;SDS011;38224;50.950;4.100;2023-12-20T10:47:35;18.50;;;3.42;;
52268;SDS011;38224;50.950;4.100;2023-12-20T10:50:01;20.98;;;4.35;;
52268;SDS011;38224;50.950;4.100;2023-12-20T10:52:26;24.85;;;4.20;;
52268;SDS011;38224;50.950;4.100;2023-12-20T10:54:52;17.73;;;4.35;;
52268;SDS011;38224;50.950;4.100;2023-12-20T10:57:18;22.20;;;4.72;;
52268;SDS011;38224;50.950;4.100;2023-12-20T10:59:46;20.70;;;4.35;;
52268;SDS011;38224;50.950;4.100;2023-12-20T11:02:14;19.38;;;4.90;;
52268;SDS011;38224;50.950;4.100;2023-12-20T11:07:29;16.83;;;3.55;;
52268;SDS011;38224;50.950;4.100;2023-12-20T11:09:57;18.80;;;3.67;;
52268;SDS011;38224;50.950;4.100;2023-12-20T11:12:32;20.33;;;3.10;;
52268;SDS011;38224;50.950;4.100;2023-12-20T11:14:59;22.23;;;4.55;;
52268;SDS011;38224;50.950;4.100;2023-12-20T11:17:29;15.93;;;3.33;;
52268;SDS011;38224;50.950;4.100;2023-12-20T11:22:24;22.00;;;3.80;;
52268;SDS011;38224;50.950;4.100;2023-12-20T11:24:52;18.80;;;4.75;;
52268;SDS011;38224;50.950;4.100;2023-12-20T11:27:18;25.70;;;4.15;;
52268;SDS011;38224;50.950;4.100;2023-12-20T11:29:48;14.10;;;3.10;;
52268;SDS011;38224;50.950;4.100;2023-12-20T11:37:37;20.20;;;3.75;;
52268;SDS011;38224;50.950;4.100;2023-12-20T11:40:05;26.83;;;5.10;;
52268;SDS011;38224;50.950;4.100;2023-12-20T11:42:33;19.10;;;3.72;;
52268;SDS011;38224;50.950;4.100;2023-12-20T11:45:02;18.27;;;3.77;;
52268;SDS011;38224;50.950;4.100;2023-12-20T11:47:28;31.10;;;4.47;;
52268;SDS011;38224;50.950;4.100;2023-12-20T11:49:54;16.25;;;3.90;;
52268;SDS011;38224;50.950;4.100;2023-12-20T11:52:21;18.25;;;3.72;;
52268;SDS011;38224;50.950;4.100;2023-12-20T11:54:46;18.77;;;3.80;;
52268;SDS011;38224;50.950;4.100;2023-12-20T11:57:12;22.95;;;3.60;;
52268;SDS011;38224;50.950;4.100;2023-12-20T11:59:38;21.60;;;4.07;;
52268;SDS011;38224;50.950;4.100;2023-12-20T12:02:03;23.45;;;3.90;;
52268;SDS011;38224;50.950;4.100;2023-12-20T12:04:28;23.77;;;4.15;;
52268;SDS011;38224;50.950;4.100;2023-12-20T12:06:54;16.67;;;3.22;;
52268;SDS011;38224;50.950;4.100;2023-12-20T12:09:19;17.15;;;2.88;;
52268;SDS011;38224;50.950;4.100;2023-12-20T12:11:44;19.25;;;3.05;;
52268;SDS011;38224;50.950;4.100;2023-12-20T12:14:10;24.42;;;4.78;;
52268;SDS011;38224;50.950;4.100;2023-12-20T12:16:35;20.50;;;4.10;;
52268;SDS011;38224;50.950;4.100;2023-12-20T12:19:01;21.93;;;3.93;;
52268;SDS011;38224;50.950;4.100;2023-12-20T12:21:26;16.48;;;4.15;;
52268;SDS011;38224;50.950;4.100;2023-12-20T12:23:51;20.35;;;4.80;;
52268;SDS011;38224;50.950;4.100;2023-12-20T12:26:18;22.30;;;3.38;;
52268;SDS011;38224;50.950;4.100;2023-12-20T12:28:43;23.48;;;4.95;;
52268;SDS011;38224;50.950;4.100;2023-12-20T12:31:09;22.20;;;4.28;;
52268;SDS011;38224;50.950;4.100;2023-12-20T12:33:40;16.98;;;4.20;;
52268;SDS011;38224;50.950;4.100;2023-12-20T12:36:06;13.13;;;3.17;;
52268;SDS011;38224;50.950;4.100;2023-12-20T12:38:32;20.10;;;4.13;;
52268;SDS011;38224;50.950;4.100;2023-12-20T12:40:57;21.83;;;3.97;;
52268;SDS011;38224;50.950;4.100;2023-12-20T12:43:23;16.63;;;4.40;;
52268;SDS011;38224;50.950;4.100;2023-12-20T12:45:49;18.88;;;4.18;;
52268;SDS011;38224;50.950;4.100;2023-12-20T12:48:14;23.42;;;4.18;;
52268;SDS011;38224;50.950;4.100;2023-12-20T12:50:39;11.52;;;3.30;;
52268;SDS011;38224;50.950;4.100;2023-12-20T12:53:05;21.85;;;4.55;;
52268;SDS011;38224;50.950;4.100;2023-12-20T12:55:30;16.25;;;3.40;;
52268;SDS011;38224;50.950;4.100;2023-12-20T12:57:55;21.63;;;4.00;;
52268;SDS011;38224;50.950;4.100;2023-12-20T13:00:21;12.43;;;3.23;;
52268;SDS011;38224;50.950;4.100;2023-12-20T13:02:46;16.15;;;3.30;;
52268;SDS011;38224;50.950;4.100;2023-12-20T13:05:12;26.48;;;4.30;;
52268;SDS011;38224;50.950;4.100;2023-12-20T13:07:37;22.10;;;3.47;;
52268;SDS011;38224;50.950;4.100;2023-12-20T13:10:04;21.65;;;4.63;;
52268;SDS011;38224;50.950;4.100;2023-12-20T13:12:30;19.52;;;4.30;;
52268;SDS011;38224;50.950;4.100;2023-12-20T13:14:56;23.67;;;4.35;;
52268;SDS011;38224;50.950;4.100;2023-12-20T13:17:21;32.27;;;4.47;;
52268;SDS011;38224;50.950;4.100;2023-12-20T13:19:46;30.83;;;4.90;;
52268;SDS011;38224;50.950;4.100;2023-12-20T13:22:12;21.27;;;3.03;;
52268;SDS011;38224;50.950;4.100;2023-12-20T13:24:37;17.45;;;3.65;;
52268;SDS011;38224;50.950;4.100;2023-12-20T13:27:02;20.35;;;4.07;;
52268;SDS011;38224;50.950;4.100;2023-12-20T13:29:28;20.05;;;3.47;;
52268;SDS011;38224;50.950;4.100;2023-12-20T13:31:53;19.83;;;3.85;;
52268;SDS011;38224;50.950;4.100;2023-12-20T13:34:18;24.63;;;3.75;;
52268;SDS011;38224;50.950;4.100;2023-12-20T13:36:44;32.83;;;4.07;;
52268;SDS011;38224;50.950;4.100;2023-12-20T13:39:16;16.73;;;3.22;;
52268;SDS011;38224;50.950;4.100;2023-12-20T13:41:41;13.50;;;4.05;;
52268;SDS011;38224;50.950;4.100;2023-12-20T13:44:07;18.85;;;3.63;;
52268;SDS011;38224;50.950;4.100;2023-12-20T13:46:32;16.73;;;3.30;;
52268;SDS011;38224;50.950;4.100;2023-12-20T13:48:57;14.80;;;3.53;;
52268;SDS011;38224;50.950;4.100;2023-12-20T13:51:23;23.27;;;3.87;;
52268;SDS011;38224;50.950;4.100;2023-12-20T13:53:48;19.80;;;3.70;;
52268;SDS011;38224;50.950;4.100;2023-12-20T13:56:14;19.13;;;3.97;;
52268;SDS011;38224;50.950;4.100;2023-12-20T13:58:42;21.73;;;3.80;;
52268;SDS011;38224;50.950;4.100;2023-12-20T14:01:08;18.50;;;3.50;;
52268;SDS011;38224;50.950;4.100;2023-12-20T14:03:36;29.15;;;4.00;;
52268;SDS011;38224;50.950;4.100;2023-12-20T14:06:01;13.68;;;3.65;;
52268;SDS011;38224;50.950;4.100;2023-12-20T14:08:27;13.45;;;3.38;;
52268;SDS011;38224;50.950;4.100;2023-12-20T14:10:52;16.95;;;2.88;;
52268;SDS011;38224;50.950;4.100;2023-12-20T14:13:18;26.67;;;5.55;;
52268;SDS011;38224;50.950;4.100;2023-12-20T14:15:43;28.02;;;4.65;;
52268;SDS011;38224;50.950;4.100;2023-12-20T14:18:09;23.27;;;3.90;;
52268;SDS011;38224;50.950;4.100;2023-12-20T14:20:35;16.95;;;4.57;;
52268;SDS011;38224;50.950;4.100;2023-12-20T14:23:01;11.98;;;3.90;;
52268;SDS011;38224;50.950;4.100;2023-12-20T14:25:26;22.63;;;6.68;;
52268;SDS011;38224;50.950;4.100;2023-12-20T14:27:51;26.07;;;7.03;;
52268;SDS011;38224;50.950;4.100;2023-12-20T14:30:17;18.38;;;3.63;;
52268;SDS011;38224;50.950;4.100;2023-12-20T14:32:45;23.83;;;5.80;;
52268;SDS011;38224;50.950;4.100;2023-12-20T14:35:12;16.05;;;3.72;;
52268;SDS011;38224;50.950;4.100;2023-12-20T14:37:38;14.43;;;3.08;;
52268;SDS011;38224;50.950;4.100;2023-12-20T14:40:05;15.85;;;4.25;;
52268;SDS011;38224;50.950;4.100;2023-12-20T14:42:31;19.25;;;3.88;;
52268;SDS011;38224;50.950;4.100;2023-12-20T14:44:57;25.30;;;5.75;;